sensor_id;sensor_type;location;lat;lon;timestamp;P1;durP1;ratioP1;P2;durP2;ratioP2
60819;SDS011;46641;48.904;9.126;2023-02-12T00:01:08;24.10;;;20.23;;
60819;SDS011;46641;48.904;9.126;2023-02-12T00:06:00;26.13;;;19.77;;
60819;SDS011;46641;48.904;9.126;2023-02-12T00:10:51;30.03;;;21.30;;
60819;SDS011;46641;48.904;9.126;2023-02-12T00:15:41;28.63;;;23.50;;
60819;SDS011;46641;48.904;9.126;2023-02-12T00:20:32;38.03;;;33.47;;
60819;SDS011;46641;48.904;9.126;2023-02-12T00:25:23;32.43;;;28.27;;
60819;SDS011;46641;48.904;9.126;2023-02-12T00:30:13;31.90;;;26.17;;
60819;SDS011;46641;48.904;9.126;2023-02-12T00:35:03;26.80;;;23.23;;
60819;SDS011;46641;48.904;9.126;2023-02-12T00:39:54;28.47;;;22.47;;
60819;SDS011;46641;48.904;9.126;2023-02-12T00:44:44;27.77;;;20.87;;
60819;SDS011;46641;48.904;9.126;2023-02-12T00:49:34;25.15;;;20.67;;
60819;SDS011;46641;48.904;9.126;2023-02-12T00:54:25;28.30;;;21.53;;
60819;SDS011;46641;48.904;9.126;2023-02-12T00:59:15;29.23;;;23.30;;
60819;SDS011;46641;48.904;9.126;2023-02-12T01:04:05;29.17;;;21.70;;
60819;SDS011;46641;48.904;9.126;2023-02-12T01:08:56;30.17;;;24.17;;
60819;SDS011;46641;48.904;9.126;2023-02-12T01:13:46;27.67;;;20.60;;
60819;SDS011;46641;48.904;9.126;2023-02-12T01:18:36;23.80;;;18.97;;
60819;SDS011;46641;48.904;9.126;2023-02-12T01:23:27;22.07;;;19.23;;
60819;SDS011;46641;48.904;9.126;2023-02-12T01:28:18;24.93;;;20.07;;
60819;SDS011;46641;48.904;9.126;2023-02-12T01:33:08;28.33;;;21.13;;
60819;SDS011;46641;48.904;9.126;2023-02-12T01:37:58;25.93;;;21.03;;
60819;SDS011;46641;48.904;9.126;2023-02-12T01:42:49;26.08;;;19.65;;
60819;SDS011;46641;48.904;9.126;2023-02-12T01:47:40;27.53;;;20.43;;
60819;SDS011;46641;48.904;9.126;2023-02-12T01:52:33;23.20;;;18.87;;
60819;SDS011;46641;48.904;9.126;2023-02-12T01:57:25;26.27;;;20.03;;
60819;SDS011;46641;48.904;9.126;2023-02-12T02:02:19;24.37;;;19.67;;
60819;SDS011;46641;48.904;9.126;2023-02-12T02:07:09;26.57;;;20.17;;
60819;SDS011;46641;48.904;9.126;2023-02-12T02:12:01;26.20;;;19.13;;
60819;SDS011;46641;48.904;9.126;2023-02-12T02:22:22;28.00;;;21.03;;
60819;SDS011;46641;48.904;9.126;2023-02-12T02:27:29;25.60;;;20.30;;
60819;SDS011;46641;48.904;9.126;2023-02-12T02:32:24;27.73;;;21.43;;
60819;SDS011;46641;48.904;9.126;2023-02-12T02:37:36;26.63;;;20.87;;
60819;SDS011;46641;48.904;9.126;2023-02-12T02:42:47;25.07;;;20.03;;
60819;SDS011;46641;48.904;9.126;2023-02-12T02:48:03;24.80;;;20.60;;
60819;SDS011;46641;48.904;9.126;2023-02-12T02:53:03;24.63;;;20.53;;
60819;SDS011;46641;48.904;9.126;2023-02-12T02:57:59;29.17;;;21.83;;
60819;SDS011;46641;48.904;9.126;2023-02-12T03:02:55;28.07;;;19.53;;
60819;SDS011;46641;48.904;9.126;2023-02-12T03:13:26;26.00;;;19.30;;
60819;SDS011;46641;48.904;9.126;2023-02-12T03:18:22;25.67;;;19.57;;
60819;SDS011;46641;48.904;9.126;2023-02-12T03:23:18;24.83;;;20.17;;
60819;SDS011;46641;48.904;9.126;2023-02-12T03:28:18;27.50;;;20.07;;
60819;SDS011;46641;48.904;9.126;2023-02-12T03:33:25;29.77;;;21.93;;
60819;SDS011;46641;48.904;9.126;2023-02-12T03:38:28;26.23;;;20.03;;
60819;SDS011;46641;48.904;9.126;2023-02-12T03:43:24;27.97;;;21.40;;
60819;SDS011;46641;48.904;9.126;2023-02-12T03:53:25;24.90;;;20.13;;
60819;SDS011;46641;48.904;9.126;2023-02-12T03:58:20;24.67;;;19.73;;
60819;SDS011;46641;48.904;9.126;2023-02-12T04:03:14;25.33;;;20.77;;
60819;SDS011;46641;48.904;9.126;2023-02-12T04:08:05;28.00;;;21.13;;
60819;SDS011;46641;48.904;9.126;2023-02-12T04:33:30;27.53;;;22.97;;
60819;SDS011;46641;48.904;9.126;2023-02-12T04:38:26;30.17;;;22.47;;
60819;SDS011;46641;48.904;9.126;2023-02-12T04:43:25;27.33;;;21.53;;
60819;SDS011;46641;48.904;9.126;2023-02-12T04:48:17;27.73;;;22.13;;
60819;SDS011;46641;48.904;9.126;2023-02-12T04:53:07;27.57;;;21.53;;
60819;SDS011;46641;48.904;9.126;2023-02-12T04:57:58;28.97;;;21.23;;
60819;SDS011;46641;48.904;9.126;2023-02-12T05:02:49;28.67;;;22.40;;
60819;SDS011;46641;48.904;9.126;2023-02-12T05:07:39;25.20;;;20.25;;
60819;SDS011;46641;48.904;9.126;2023-02-12T05:12:29;24.27;;;19.73;;
60819;SDS011;46641;48.904;9.126;2023-02-12T05:17:21;22.07;;;19.57;;
60819;SDS011;46641;48.904;9.126;2023-02-12T05:22:12;24.80;;;21.10;;
60819;SDS011;46641;48.904;9.126;2023-02-12T05:27:02;25.50;;;20.47;;
60819;SDS011;46641;48.904;9.126;2023-02-12T05:31:52;29.10;;;21.55;;
60819;SDS011;46641;48.904;9.126;2023-02-12T05:36:43;25.27;;;19.83;;
60819;SDS011;46641;48.904;9.126;2023-02-12T05:41:33;22.40;;;18.17;;
60819;SDS011;46641;48.904;9.126;2023-02-12T05:46:24;26.00;;;20.50;;
60819;SDS011;46641;48.904;9.126;2023-02-12T05:51:15;23.42;;;19.10;;
60819;SDS011;46641;48.904;9.126;2023-02-12T05:56:15;28.63;;;20.50;;
60819;SDS011;46641;48.904;9.126;2023-02-12T06:01:15;25.83;;;20.80;;
60819;SDS011;46641;48.904;9.126;2023-02-12T06:06:09;26.37;;;21.13;;
60819;SDS011;46641;48.904;9.126;2023-02-12T06:11:03;25.27;;;20.67;;
60819;SDS011;46641;48.904;9.126;2023-02-12T06:15:55;29.43;;;22.13;;
60819;SDS011;46641;48.904;9.126;2023-02-12T06:20:46;25.87;;;21.00;;
60819;SDS011;46641;48.904;9.126;2023-02-12T06:25:36;28.45;;;21.27;;
60819;SDS011;46641;48.904;9.126;2023-02-12T06:30:26;27.02;;;22.60;;
60819;SDS011;46641;48.904;9.126;2023-02-12T06:35:16;29.70;;;22.70;;
60819;SDS011;46641;48.904;9.126;2023-02-12T06:40:07;28.45;;;21.88;;
60819;SDS011;46641;48.904;9.126;2023-02-12T06:44:57;26.30;;;22.20;;
60819;SDS011;46641;48.904;9.126;2023-02-12T06:49:48;28.27;;;20.27;;
60819;SDS011;46641;48.904;9.126;2023-02-12T06:54:38;27.43;;;20.67;;
60819;SDS011;46641;48.904;9.126;2023-02-12T06:59:29;28.63;;;20.73;;
60819;SDS011;46641;48.904;9.126;2023-02-12T07:04:19;28.30;;;21.70;;
60819;SDS011;46641;48.904;9.126;2023-02-12T07:09:10;23.50;;;20.07;;
60819;SDS011;46641;48.904;9.126;2023-02-12T07:14:00;26.80;;;21.67;;
60819;SDS011;46641;48.904;9.126;2023-02-12T07:18:51;25.17;;;20.47;;
60819;SDS011;46641;48.904;9.126;2023-02-12T07:23:44;29.53;;;23.30;;
60819;SDS011;46641;48.904;9.126;2023-02-12T07:28:36;24.40;;;20.70;;
60819;SDS011;46641;48.904;9.126;2023-02-12T07:33:26;24.20;;;20.83;;
60819;SDS011;46641;48.904;9.126;2023-02-12T07:38:17;27.75;;;21.50;;
60819;SDS011;46641;48.904;9.126;2023-02-12T07:43:07;29.47;;;23.13;;
60819;SDS011;46641;48.904;9.126;2023-02-12T07:47:57;27.27;;;22.90;;
60819;SDS011;46641;48.904;9.126;2023-02-12T07:52:48;29.73;;;24.97;;
60819;SDS011;46641;48.904;9.126;2023-02-12T07:57:41;27.47;;;23.93;;
60819;SDS011;46641;48.904;9.126;2023-02-12T08:02:32;34.10;;;24.27;;
60819;SDS011;46641;48.904;9.126;2023-02-12T08:07:22;29.13;;;23.00;;
60819;SDS011;46641;48.904;9.126;2023-02-12T08:12:13;30.37;;;23.53;;
60819;SDS011;46641;48.904;9.126;2023-02-12T08:17:03;29.57;;;23.17;;
60819;SDS011;46641;48.904;9.126;2023-02-12T08:21:54;32.63;;;24.07;;
60819;SDS011;46641;48.904;9.126;2023-02-12T08:26:45;30.80;;;22.73;;
60819;SDS011;46641;48.904;9.126;2023-02-12T08:31:40;30.80;;;25.03;;
60819;SDS011;46641;48.904;9.126;2023-02-12T08:36:36;33.20;;;25.63;;
60819;SDS011;46641;48.904;9.126;2023-02-12T08:41:28;34.23;;;26.87;;
60819;SDS011;46641;48.904;9.126;2023-02-12T08:46:21;36.13;;;26.10;;
60819;SDS011;46641;48.904;9.126;2023-02-12T08:51:14;34.80;;;26.73;;
60819;SDS011;46641;48.904;9.126;2023-02-12T08:56:06;32.70;;;26.37;;
60819;SDS011;46641;48.904;9.126;2023-02-12T09:00:58;35.53;;;26.93;;
60819;SDS011;46641;48.904;9.126;2023-02-12T09:05:49;37.43;;;28.00;;
60819;SDS011;46641;48.904;9.126;2023-02-12T09:10:40;38.23;;;28.37;;
60819;SDS011;46641;48.904;9.126;2023-02-12T09:15:35;38.50;;;28.87;;
60819;SDS011;46641;48.904;9.126;2023-02-12T09:20:39;42.87;;;30.20;;
60819;SDS011;46641;48.904;9.126;2023-02-12T09:25:31;39.03;;;29.23;;
60819;SDS011;46641;48.904;9.126;2023-02-12T09:30:23;34.97;;;29.00;;
60819;SDS011;46641;48.904;9.126;2023-02-12T09:35:13;39.00;;;29.77;;
60819;SDS011;46641;48.904;9.126;2023-02-12T09:40:09;37.10;;;28.57;;
60819;SDS011;46641;48.904;9.126;2023-02-12T09:45:14;36.80;;;30.17;;
60819;SDS011;46641;48.904;9.126;2023-02-12T09:55:17;38.07;;;27.40;;
60819;SDS011;46641;48.904;9.126;2023-02-12T10:00:21;35.23;;;27.63;;
60819;SDS011;46641;48.904;9.126;2023-02-12T10:05:18;37.07;;;27.53;;
60819;SDS011;46641;48.904;9.126;2023-02-12T10:20:37;33.30;;;25.60;;
60819;SDS011;46641;48.904;9.126;2023-02-12T10:30:55;37.03;;;24.73;;
60819;SDS011;46641;48.904;9.126;2023-02-12T10:35:50;32.67;;;23.57;;
60819;SDS011;46641;48.904;9.126;2023-02-12T10:40:45;25.60;;;19.33;;
60819;SDS011;46641;48.904;9.126;2023-02-12T10:45:36;25.67;;;19.20;;
60819;SDS011;46641;48.904;9.126;2023-02-12T11:05:23;15.97;;;13.10;;
60819;SDS011;46641;48.904;9.126;2023-02-12T11:10:24;9.53;;;8.20;;
60819;SDS011;46641;48.904;9.126;2023-02-12T11:15:27;9.27;;;7.87;;
60819;SDS011;46641;48.904;9.126;2023-02-12T11:20:25;9.77;;;8.57;;
60819;SDS011;46641;48.904;9.126;2023-02-12T11:25:15;13.10;;;9.20;;
60819;SDS011;46641;48.904;9.126;2023-02-12T11:40:21;12.17;;;9.33;;
60819;SDS011;46641;48.904;9.126;2023-02-12T11:45:15;10.40;;;8.30;;
60819;SDS011;46641;48.904;9.126;2023-02-12T11:50:17;8.73;;;7.20;;
60819;SDS011;46641;48.904;9.126;2023-02-12T11:55:21;10.33;;;7.80;;
60819;SDS011;46641;48.904;9.126;2023-02-12T12:05:07;9.57;;;6.30;;
60819;SDS011;46641;48.904;9.126;2023-02-12T12:10:11;9.23;;;5.90;;
60819;SDS011;46641;48.904;9.126;2023-02-12T12:20:38;6.43;;;5.43;;
60819;SDS011;46641;48.904;9.126;2023-02-12T12:35:56;5.27;;;4.77;;
60819;SDS011;46641;48.904;9.126;2023-02-12T12:41:01;6.33;;;5.63;;
60819;SDS011;46641;48.904;9.126;2023-02-12T12:51:10;5.10;;;4.40;;
60819;SDS011;46641;48.904;9.126;2023-02-12T12:56:13;4.93;;;4.43;;
60819;SDS011;46641;48.904;9.126;2023-02-12T13:06:51;6.40;;;5.20;;
60819;SDS011;46641;48.904;9.126;2023-02-12T13:17:30;5.93;;;5.00;;
60819;SDS011;46641;48.904;9.126;2023-02-12T13:27:38;6.20;;;5.50;;
60819;SDS011;46641;48.904;9.126;2023-02-12T13:32:34;5.80;;;4.87;;
60819;SDS011;46641;48.904;9.126;2023-02-12T13:37:42;5.60;;;5.10;;
60819;SDS011;46641;48.904;9.126;2023-02-12T13:42:39;6.13;;;5.17;;
60819;SDS011;46641;48.904;9.126;2023-02-12T13:47:40;6.30;;;5.30;;
60819;SDS011;46641;48.904;9.126;2023-02-12T13:52:56;6.20;;;5.07;;
60819;SDS011;46641;48.904;9.126;2023-02-12T14:03:22;7.13;;;6.00;;
60819;SDS011;46641;48.904;9.126;2023-02-12T14:08:33;6.13;;;4.90;;
60819;SDS011;46641;48.904;9.126;2023-02-12T14:13:25;6.33;;;4.73;;
60819;SDS011;46641;48.904;9.126;2023-02-12T14:18:27;6.30;;;5.07;;
60819;SDS011;46641;48.904;9.126;2023-02-12T14:23:26;6.70;;;5.33;;
60819;SDS011;46641;48.904;9.126;2023-02-12T14:28:19;5.37;;;4.73;;
60819;SDS011;46641;48.904;9.126;2023-02-12T14:33:19;5.63;;;4.47;;
60819;SDS011;46641;48.904;9.126;2023-02-12T14:53:34;5.83;;;3.50;;
60819;SDS011;46641;48.904;9.126;2023-02-12T14:58:28;3.87;;;3.20;;
60819;SDS011;46641;48.904;9.126;2023-02-12T15:03:45;3.40;;;3.10;;
60819;SDS011;46641;48.904;9.126;2023-02-12T15:08:45;3.53;;;3.20;;
60819;SDS011;46641;48.904;9.126;2023-02-12T15:13:59;5.03;;;3.70;;
60819;SDS011;46641;48.904;9.126;2023-02-12T15:18:55;4.70;;;3.60;;
60819;SDS011;46641;48.904;9.126;2023-02-12T15:24:00;4.50;;;3.40;;
60819;SDS011;46641;48.904;9.126;2023-02-12T15:28:55;8.80;;;6.20;;
60819;SDS011;46641;48.904;9.126;2023-02-12T15:33:46;7.40;;;4.90;;
60819;SDS011;46641;48.904;9.126;2023-02-12T15:38:39;4.53;;;3.40;;
60819;SDS011;46641;48.904;9.126;2023-02-12T15:43:31;4.10;;;3.03;;
60819;SDS011;46641;48.904;9.126;2023-02-12T15:48:28;3.97;;;3.57;;
60819;SDS011;46641;48.904;9.126;2023-02-12T15:53:21;3.60;;;3.30;;
60819;SDS011;46641;48.904;9.126;2023-02-12T15:58:28;4.07;;;3.47;;
60819;SDS011;46641;48.904;9.126;2023-02-12T16:03:22;4.17;;;3.77;;
60819;SDS011;46641;48.904;9.126;2023-02-12T16:08:16;4.77;;;4.13;;
60819;SDS011;46641;48.904;9.126;2023-02-12T16:13:11;8.90;;;5.63;;
60819;SDS011;46641;48.904;9.126;2023-02-12T16:18:20;4.20;;;3.80;;
60819;SDS011;46641;48.904;9.126;2023-02-12T16:23:12;4.70;;;4.20;;
60819;SDS011;46641;48.904;9.126;2023-02-12T16:28:04;4.83;;;3.53;;
60819;SDS011;46641;48.904;9.126;2023-02-12T16:32:56;4.50;;;4.10;;
60819;SDS011;46641;48.904;9.126;2023-02-12T16:37:48;3.67;;;3.33;;
60819;SDS011;46641;48.904;9.126;2023-02-12T16:47:36;4.10;;;3.70;;
60819;SDS011;46641;48.904;9.126;2023-02-12T16:52:30;5.60;;;3.97;;
60819;SDS011;46641;48.904;9.126;2023-02-12T16:57:26;4.40;;;4.00;;
60819;SDS011;46641;48.904;9.126;2023-02-12T17:02:17;6.73;;;6.03;;
60819;SDS011;46641;48.904;9.126;2023-02-12T17:07:11;32.70;;;17.23;;
60819;SDS011;46641;48.904;9.126;2023-02-12T17:12:07;20.07;;;11.43;;
60819;SDS011;46641;48.904;9.126;2023-02-12T17:16:57;8.23;;;6.60;;
60819;SDS011;46641;48.904;9.126;2023-02-12T17:21:48;6.53;;;5.63;;
60819;SDS011;46641;48.904;9.126;2023-02-12T17:26:40;6.90;;;4.80;;
60819;SDS011;46641;48.904;9.126;2023-02-12T17:31:31;8.30;;;5.80;;
60819;SDS011;46641;48.904;9.126;2023-02-12T17:36:22;10.53;;;6.57;;
60819;SDS011;46641;48.904;9.126;2023-02-12T17:41:13;15.83;;;11.50;;
60819;SDS011;46641;48.904;9.126;2023-02-12T17:46:10;17.93;;;12.07;;
60819;SDS011;46641;48.904;9.126;2023-02-12T17:51:02;11.13;;;7.10;;
60819;SDS011;46641;48.904;9.126;2023-02-12T17:55:53;7.57;;;6.73;;
60819;SDS011;46641;48.904;9.126;2023-02-12T18:00:43;6.20;;;5.60;;
60819;SDS011;46641;48.904;9.126;2023-02-12T18:05:38;6.63;;;5.93;;
60819;SDS011;46641;48.904;9.126;2023-02-12T18:10:29;6.07;;;5.47;;
60819;SDS011;46641;48.904;9.126;2023-02-12T18:15:19;7.47;;;5.53;;
60819;SDS011;46641;48.904;9.126;2023-02-12T18:20:10;7.03;;;6.37;;
60819;SDS011;46641;48.904;9.126;2023-02-12T18:25:00;6.57;;;5.80;;
60819;SDS011;46641;48.904;9.126;2023-02-12T18:29:51;10.37;;;6.83;;
60819;SDS011;46641;48.904;9.126;2023-02-12T18:34:41;9.13;;;7.30;;
60819;SDS011;46641;48.904;9.126;2023-02-12T18:39:33;9.40;;;7.60;;
60819;SDS011;46641;48.904;9.126;2023-02-12T18:44:23;7.30;;;6.50;;
60819;SDS011;46641;48.904;9.126;2023-02-12T18:49:13;8.43;;;6.23;;
60819;SDS011;46641;48.904;9.126;2023-02-12T18:54:06;7.23;;;5.40;;
60819;SDS011;46641;48.904;9.126;2023-02-12T18:59:00;6.87;;;5.40;;
60819;SDS011;46641;48.904;9.126;2023-02-12T19:03:54;5.87;;;5.27;;
60819;SDS011;46641;48.904;9.126;2023-02-12T19:08:46;7.13;;;5.70;;
60819;SDS011;46641;48.904;9.126;2023-02-12T19:13:37;5.83;;;5.23;;
60819;SDS011;46641;48.904;9.126;2023-02-12T19:18:27;7.33;;;6.53;;
60819;SDS011;46641;48.904;9.126;2023-02-12T19:23:17;7.55;;;6.78;;
60819;SDS011;46641;48.904;9.126;2023-02-12T19:28:08;9.80;;;7.37;;
60819;SDS011;46641;48.904;9.126;2023-02-12T19:32:59;9.93;;;7.40;;
60819;SDS011;46641;48.904;9.126;2023-02-12T19:37:51;8.50;;;7.13;;
60819;SDS011;46641;48.904;9.126;2023-02-12T19:42:41;10.57;;;7.90;;
60819;SDS011;46641;48.904;9.126;2023-02-12T19:47:32;9.97;;;8.13;;
60819;SDS011;46641;48.904;9.126;2023-02-12T19:52:22;11.32;;;8.70;;
60819;SDS011;46641;48.904;9.126;2023-02-12T19:57:12;14.37;;;10.60;;
60819;SDS011;46641;48.904;9.126;2023-02-12T20:02:04;10.57;;;9.17;;
60819;SDS011;46641;48.904;9.126;2023-02-12T20:06:54;10.35;;;8.30;;
60819;SDS011;46641;48.904;9.126;2023-02-12T20:11:44;9.47;;;8.23;;
60819;SDS011;46641;48.904;9.126;2023-02-12T20:16:35;8.93;;;7.87;;
60819;SDS011;46641;48.904;9.126;2023-02-12T20:21:28;11.63;;;8.93;;
60819;SDS011;46641;48.904;9.126;2023-02-12T20:26:18;16.37;;;13.43;;
60819;SDS011;46641;48.904;9.126;2023-02-12T20:31:13;15.73;;;13.07;;
60819;SDS011;46641;48.904;9.126;2023-02-12T20:36:06;14.20;;;12.50;;
60819;SDS011;46641;48.904;9.126;2023-02-12T20:41:00;15.33;;;12.13;;
60819;SDS011;46641;48.904;9.126;2023-02-12T20:45:51;14.93;;;11.50;;
60819;SDS011;46641;48.904;9.126;2023-02-12T20:50:42;13.55;;;11.52;;
60819;SDS011;46641;48.904;9.126;2023-02-12T20:55:32;13.90;;;11.37;;
60819;SDS011;46641;48.904;9.126;2023-02-12T21:00:22;14.27;;;11.93;;
60819;SDS011;46641;48.904;9.126;2023-02-12T21:05:13;14.87;;;12.17;;
60819;SDS011;46641;48.904;9.126;2023-02-12T21:10:03;12.27;;;10.00;;
60819;SDS011;46641;48.904;9.126;2023-02-12T21:14:54;9.57;;;8.07;;
60819;SDS011;46641;48.904;9.126;2023-02-12T21:19:45;11.75;;;9.52;;
60819;SDS011;46641;48.904;9.126;2023-02-12T21:24:35;11.47;;;8.43;;
60819;SDS011;46641;48.904;9.126;2023-02-12T21:29:25;9.87;;;8.80;;
60819;SDS011;46641;48.904;9.126;2023-02-12T21:34:20;11.43;;;9.63;;
60819;SDS011;46641;48.904;9.126;2023-02-12T21:39:16;11.93;;;9.10;;
60819;SDS011;46641;48.904;9.126;2023-02-12T21:44:14;14.43;;;9.53;;
60819;SDS011;46641;48.904;9.126;2023-02-12T21:49:06;14.47;;;10.07;;
60819;SDS011;46641;48.904;9.126;2023-02-12T21:53:58;14.13;;;11.40;;
60819;SDS011;46641;48.904;9.126;2023-02-12T21:58:50;16.67;;;11.67;;
60819;SDS011;46641;48.904;9.126;2023-02-12T22:03:41;17.17;;;13.33;;
60819;SDS011;46641;48.904;9.126;2023-02-12T22:08:33;18.10;;;12.80;;
60819;SDS011;46641;48.904;9.126;2023-02-12T22:13:24;18.93;;;14.20;;
60819;SDS011;46641;48.904;9.126;2023-02-12T22:18:14;21.73;;;15.97;;
60819;SDS011;46641;48.904;9.126;2023-02-12T22:23:06;18.30;;;13.73;;
60819;SDS011;46641;48.904;9.126;2023-02-12T22:27:56;19.33;;;14.13;;
60819;SDS011;46641;48.904;9.126;2023-02-12T22:32:46;18.25;;;13.82;;
60819;SDS011;46641;48.904;9.126;2023-02-12T22:37:39;17.23;;;13.30;;
60819;SDS011;46641;48.904;9.126;2023-02-12T22:42:30;17.00;;;14.40;;
60819;SDS011;46641;48.904;9.126;2023-02-12T22:47:21;17.25;;;13.65;;
60819;SDS011;46641;48.904;9.126;2023-02-12T22:52:12;16.20;;;12.83;;
60819;SDS011;46641;48.904;9.126;2023-02-12T22:57:03;18.88;;;13.38;;
60819;SDS011;46641;48.904;9.126;2023-02-12T23:01:53;15.47;;;12.60;;
60819;SDS011;46641;48.904;9.126;2023-02-12T23:06:43;12.20;;;9.67;;
60819;SDS011;46641;48.904;9.126;2023-02-12T23:11:34;14.80;;;10.10;;
60819;SDS011;46641;48.904;9.126;2023-02-12T23:16:24;13.35;;;9.80;;
60819;SDS011;46641;48.904;9.126;2023-02-12T23:21:15;11.93;;;9.67;;
60819;SDS011;46641;48.904;9.126;2023-02-12T23:26:05;12.40;;;9.47;;
60819;SDS011;46641;48.904;9.126;2023-02-12T23:30:56;12.68;;;9.70;;
60819;SDS011;46641;48.904;9.126;2023-02-12T23:35:46;11.80;;;9.27;;
60819;SDS011;46641;48.904;9.126;2023-02-12T23:40:37;12.53;;;9.53;;
60819;SDS011;46641;48.904;9.126;2023-02-12T23:45:28;10.87;;;9.20;;
60819;SDS011;46641;48.904;9.126;2023-02-12T23:50:18;11.67;;;8.97;;
60819;SDS011;46641;48.904;9.126;2023-02-12T23:55:08;12.47;;;9.07;;
60819;SDS011;46641;48.904;9.126;2023-02-12T23:59:59;12.35;;;9.63;;
